Time;durP1;ratioP1;P1;durP2;ratioP2;P2;SDS_P1;SDS_P2;PMS_P1;PMS_P2;Temp;Humidity;BMP_temperature;BMP_pressure;BME280_temperature;BME280_humidity;BME280_pressure;Samples;Min_cycle;Max_cycle;Signal;HPM_P1;HPM_P2
2022/10/01 00:00:07;;;;;;;3.37;3.10;;;15.30;77.10;15.50;96202.00;;;;5055036;28;20669;-86
2022/10/01 00:02:38;;;;;;;3.40;3.10;;;15.30;77.30;15.50;96205.00;;;;5054306;28;20266;-86
2022/10/01 00:05:09;;;;;;;3.40;3.10;;;15.30;77.50;15.50;96204.00;;;;5055597;28;20235;-86
2022/10/01 00:07:38;;;;;;;3.27;2.97;;;15.30;77.70;15.50;96207.00;;;;5055365;28;20196;-86
2022/10/01 00:10:07;;;;;;;3.40;3.20;;;15.30;77.80;15.50;96204.00;;;;5035388;28;20204;-86
2022/10/01 00:12:34;;;;;;;2.83;2.63;;;15.30;77.80;15.60;96202.00;;;;5035042;28;20306;-86
2022/10/01 00:15:02;;;;;;;3.10;2.90;;;15.30;77.90;15.60;96200.00;;;;5034034;28;20264;-86
2022/10/01 00:17:29;;;;;;;3.40;3.20;;;15.30;78.00;15.60;96207.00;;;;5034835;28;20330;-86
2022/10/01 00:19:58;;;;;;;3.40;3.10;;;15.30;78.20;15.60;96203.00;;;;5034296;28;20293;-86
2022/10/01 00:22:25;;;;;;;3.37;3.07;;;15.30;78.30;15.60;96213.00;;;;5034768;28;20200;-86
2022/10/01 00:24:52;;;;;;;3.60;3.30;;;15.30;78.30;15.60;96215.00;;;;5034264;28;20667;-86
2022/10/01 00:27:19;;;;;;;3.47;3.17;;;15.30;78.30;15.60;96212.00;;;;5034696;28;20205;-86
2022/10/01 00:29:46;;;;;;;3.37;3.17;;;15.30;78.30;15.60;96210.00;;;;5035177;28;20212;-86
2022/10/01 00:32:13;;;;;;;3.20;2.90;;;15.40;78.40;15.60;96210.00;;;;5042450;28;20288;-86
2022/10/01 00:34:41;;;;;;;3.33;3.13;;;15.40;78.40;15.60;96209.00;;;;5054284;28;20220;-86
2022/10/01 00:37:09;;;;;;;2.57;2.37;;;15.30;78.20;15.60;96206.00;;;;5054254;28;20291;-86
2022/10/01 00:39:37;;;;;;;4.47;3.30;;;15.40;78.20;15.60;96210.00;;;;5054240;28;20731;-86
2022/10/01 00:42:17;;;;;;;2.97;2.77;;;15.40;78.00;15.60;96212.00;;;;5054068;28;20204;-86
2022/10/01 00:44:45;;;;;;;2.90;2.70;;;15.40;77.90;15.50;96201.00;;;;5053674;28;20224;-86
2022/10/01 00:47:30;;;;;;;2.60;2.40;;;15.40;77.70;15.50;96207.00;;;;5054330;28;20380;-86
2022/10/01 00:50:07;;;;;;;2.90;2.70;;;15.40;77.50;15.50;96210.00;;;;5054139;28;20196;-86
2022/10/01 00:52:39;;;;;;;2.90;2.63;;;15.30;77.30;15.50;96216.00;;;;5054268;28;20200;-86
2022/10/01 00:55:11;;;;;;;2.70;2.50;;;15.30;77.30;15.50;96209.00;;;;5054049;28;20251;-86
2022/10/01 00:57:40;;;;;;;2.63;2.43;;;15.30;77.10;15.40;96208.00;;;;5054201;28;20197;-86
2022/10/01 01:00:12;;;;;;;2.80;2.60;;;15.20;77.00;15.40;96206.00;;;;5054262;28;20280;-86
2022/10/01 01:02:39;;;;;;;3.00;2.80;;;15.20;77.00;15.40;96197.00;;;;5053642;28;20208;-86
2022/10/01 01:05:10;;;;;;;3.20;2.90;;;15.20;77.10;15.30;96205.00;;;;5053536;28;20223;-86
2022/10/01 01:07:48;;;;;;;2.60;2.40;;;15.20;77.30;15.30;96192.00;;;;5053922;28;20197;-86
2022/10/01 01:10:19;;;;;;;2.90;2.70;;;15.20;77.30;15.30;96184.00;;;;5052709;28;20283;-86
2022/10/01 01:13:05;;;;;;;2.67;2.47;;;15.10;77.40;15.30;96173.00;;;;5053393;28;20196;-86
2022/10/01 01:15:41;;;;;;;2.83;2.63;;;15.10;77.50;15.30;96179.00;;;;5053396;28;20224;-86
2022/10/01 01:18:15;;;;;;;2.60;2.50;;;15.10;77.50;15.30;96183.00;;;;5053917;28;20224;-86
2022/10/01 01:21:19;;;;;;;3.07;2.47;;;15.10;77.60;15.30;96183.00;;;;5053573;28;20212;-86
2022/10/01 01:24:33;;;;;;;2.80;2.60;;;15.10;78.30;15.30;96186.00;;;;5053182;28;20204;-85
2022/10/01 01:27:24;;;;;;;2.80;2.60;;;15.10;77.70;15.30;96178.00;;;;5055111;28;20311;-86
2022/10/01 01:29:56;;;;;;;2.77;2.60;;;15.10;77.90;15.30;96182.00;;;;5054908;28;20196;-86
2022/10/01 01:32:32;;;;;;;3.13;2.93;;;14.90;78.00;15.30;96180.00;;;;5052662;28;20192;-85
2022/10/01 01:35:05;;;;;;;3.57;2.97;;;15.00;79.00;15.30;96175.00;;;;5053161;28;20216;-86
2022/10/01 01:37:41;;;;;;;3.73;3.40;;;15.10;78.40;15.30;96178.00;;;;5053323;28;20828;-86
2022/10/01 01:40:13;;;;;;;3.93;3.63;;;15.10;78.50;15.30;96178.00;;;;5042639;28;20207;-86
2022/10/01 01:42:45;;;;;;;3.97;3.67;;;15.10;78.50;15.30;96179.00;;;;5052598;28;20201;-86
2022/10/01 01:45:19;;;;;;;4.70;4.30;;;15.10;78.50;15.30;96173.00;;;;5052967;28;20223;-86
2022/10/01 01:47:47;;;;;;;4.43;4.13;;;15.10;78.50;15.30;96173.00;;;;5053354;28;20196;-86
2022/10/01 01:50:17;;;;;;;4.70;4.40;;;15.10;78.50;15.30;96176.00;;;;5052897;28;20291;-86
2022/10/01 01:52:44;;;;;;;4.80;4.40;;;15.10;78.50;15.30;96175.00;;;;5052732;28;20214;-86
2022/10/01 01:55:12;;;;;;;5.03;4.63;;;15.10;78.40;15.30;96177.00;;;;5052480;28;20221;-86
2022/10/01 01:57:43;;;;;;;4.90;4.50;;;15.10;78.40;15.30;96188.00;;;;5053002;28;20757;-86
2022/10/01 02:00:13;;;;;;;5.23;4.83;;;15.10;78.80;15.30;96184.00;;;;5053161;28;20295;-86
2022/10/01 02:02:47;;;;;;;6.90;5.57;;;15.10;78.20;15.30;96184.00;;;;5052214;28;20582;-86
2022/10/01 02:05:19;;;;;;;5.57;5.07;;;15.10;78.10;15.30;96180.00;;;;5052507;28;20311;-86
2022/10/01 02:08:16;;;;;;;5.77;5.27;;;15.10;78.00;15.20;96184.00;;;;5051877;28;20192;-86
2022/10/01 02:11:11;;;;;;;5.67;5.27;;;15.10;77.90;15.20;96187.00;;;;5046725;28;20207;-86
2022/10/01 02:13:52;;;;;;;5.20;4.80;;;15.10;77.70;15.20;96186.00;;;;5052554;28;20232;-86
2022/10/01 02:16:30;;;;;;;5.63;5.23;;;15.10;77.60;15.20;96171.00;;;;5051635;28;20225;-87
2022/10/01 02:19:03;;;;;;;6.53;6.00;;;15.00;77.50;15.10;96177.00;;;;5051783;28;20220;-86
2022/10/01 02:21:38;;;;;;;5.87;5.37;;;15.00;77.50;15.10;96177.00;;;;5052422;28;20733;-86
2022/10/01 02:24:14;;;;;;;6.03;5.53;;;15.00;77.30;15.10;96186.00;;;;5052240;28;20680;-86
2022/10/01 02:26:47;;;;;;;6.13;5.63;;;14.90;77.20;15.00;96181.00;;;;5051280;28;20224;-86
2022/10/01 02:29:19;;;;;;;6.50;5.90;;;14.90;77.30;15.00;96190.00;;;;5052028;28;20207;-86
2022/10/01 02:31:52;;;;;;;7.20;6.67;;;14.90;77.40;15.00;96188.00;;;;5051507;28;20295;-86
2022/10/01 02:34:22;;;;;;;7.30;6.63;;;14.90;77.30;15.00;96189.00;;;;5051830;28;20196;-86
2022/10/01 02:36:52;;;;;;;7.80;7.00;;;14.80;77.10;14.90;96177.00;;;;5052614;28;20575;-86
2022/10/01 02:39:21;;;;;;;7.30;6.70;;;14.80;77.60;14.90;96182.00;;;;5062461;28;20211;-86
2022/10/01 02:41:52;;;;;;;7.87;7.17;;;14.80;76.80;14.90;96172.00;;;;5065273;28;20196;-85
2022/10/01 02:44:25;;;;;;;7.30;6.70;;;14.70;76.70;14.80;96170.00;;;;5062655;28;20204;-86
2022/10/01 02:47:02;;;;;;;7.00;6.40;;;14.70;76.60;14.80;96175.00;;;;5058646;28;20732;-87
2022/10/01 02:49:32;;;;;;;6.40;5.80;;;14.70;76.40;14.70;96171.00;;;;5051775;28;20258;-86
2022/10/01 02:52:08;;;;;;;6.37;5.87;;;14.60;76.30;14.60;96160.00;;;;5053597;28;20593;-86
2022/10/01 02:54:42;;;;;;;7.03;6.43;;;14.60;76.40;14.60;96160.00;;;;5050985;28;20196;-87
2022/10/01 02:57:26;;;;;;;6.27;5.77;;;14.50;76.30;14.60;96155.00;;;;5052575;28;20212;-86
2022/10/01 02:59:56;;;;;;;7.00;6.40;;;14.50;76.20;14.50;96157.00;;;;5052630;28;20291;-86
2022/10/01 03:02:26;;;;;;;6.07;5.57;;;14.40;76.10;14.40;96154.00;;;;5052397;28;20227;-86
2022/10/01 03:04:53;;;;;;;6.70;6.10;;;14.40;75.80;14.40;96151.00;;;;5050625;28;20216;-86
2022/10/01 03:07:21;;;;;;;6.90;6.30;;;14.30;75.70;14.30;96146.00;;;;5051848;28;20225;-86
2022/10/01 03:09:49;;;;;;;7.77;6.50;;;14.30;75.50;14.20;96141.00;;;;5051259;28;20673;-86
2022/10/01 03:12:17;;;;;;;6.23;5.73;;;14.20;75.40;14.20;96140.00;;;;5051274;28;20201;-86
2022/10/01 03:14:45;;;;;;;6.17;5.67;;;14.20;75.40;14.10;96144.00;;;;5051179;28;20243;-86
2022/10/01 03:17:13;;;;;;;6.37;5.83;;;14.10;75.30;14.00;96146.00;;;;5051847;28;20204;-86
2022/10/01 03:19:42;;;;;;;6.53;5.93;;;14.00;75.30;14.00;96152.00;;;;5051919;28;20204;-86
2022/10/01 03:22:13;;;;;;;6.17;5.67;;;14.00;75.30;13.90;96149.00;;;;5051822;28;20642;-86
2022/10/01 03:24:40;;;;;;;7.00;6.40;;;13.90;75.20;13.80;96156.00;;;;5051547;28;20292;-86
2022/10/01 03:27:07;;;;;;;6.77;6.17;;;13.90;75.20;13.80;96155.00;;;;5051198;28;20213;-85
2022/10/01 03:29:34;;;;;;;7.20;6.60;;;13.80;75.80;13.70;96148.00;;;;5051439;28;20665;-86
2022/10/01 03:32:01;;;;;;;6.33;5.73;;;13.80;75.00;13.70;96149.00;;;;5051418;28;20614;-86
2022/10/01 03:34:28;;;;;;;6.33;5.83;;;13.70;75.00;13.60;96143.00;;;;5051124;28;20475;-86
2022/10/01 03:36:57;;;;;;;6.67;5.93;;;13.60;75.00;13.50;96136.00;;;;5050963;28;20211;-86
2022/10/01 03:39:24;;;;;;;6.27;5.77;;;13.60;74.90;13.50;96138.00;;;;5036906;28;20682;-86
2022/10/01 03:41:51;;;;;;;6.40;5.63;;;13.50;74.80;13.40;96137.00;;;;5031388;28;20203;-86
2022/10/01 03:44:18;;;;;;;6.60;6.07;;;13.50;74.90;13.40;96127.00;;;;5034271;28;20215;-86
2022/10/01 03:46:45;;;;;;;6.13;5.53;;;13.40;74.70;13.30;96123.00;;;;5050411;28;20334;-86
2022/10/01 03:49:12;;;;;;;6.07;5.57;;;13.40;74.70;13.30;96127.00;;;;5050328;28;20287;-86
2022/10/01 03:51:40;;;;;;;6.33;5.83;;;13.30;74.70;13.20;96126.00;;;;5051210;28;20283;-86
2022/10/01 03:54:10;;;;;;;6.33;5.77;;;13.20;74.80;13.20;96124.00;;;;5051025;28;20299;-86
2022/10/01 03:56:41;;;;;;;6.20;5.70;;;13.20;74.80;13.10;96129.00;;;;5051128;28;20225;-86
2022/10/01 03:59:08;;;;;;;6.60;6.00;;;13.10;74.70;13.10;96129.00;;;;5051359;28;20192;-86
2022/10/01 04:01:35;;;;;;;6.10;5.60;;;13.10;74.80;13.00;96125.00;;;;5050867;28;20583;-86
2022/10/01 04:04:03;;;;;;;6.53;5.73;;;13.00;75.00;13.00;96122.00;;;;5050359;28;20208;-86
2022/10/01 04:06:30;;;;;;;5.63;5.23;;;13.00;75.00;12.90;96125.00;;;;5050109;28;20638;-86
2022/10/01 04:08:57;;;;;;;6.37;5.73;;;13.00;75.00;12.90;96132.00;;;;5050959;28;20283;-86
2022/10/01 04:11:26;;;;;;;6.10;5.60;;;12.90;74.90;12.90;96123.00;;;;5050691;28;20571;-86
2022/10/01 04:13:56;;;;;;;6.00;5.50;;;12.90;75.10;12.80;96127.00;;;;5050513;28;20253;-86
2022/10/01 04:16:24;;;;;;;6.57;5.97;;;12.80;75.10;12.80;96129.00;;;;5030911;28;20221;-86
2022/10/01 04:18:51;;;;;;;5.97;5.33;;;12.80;75.00;12.70;96130.00;;;;5031120;28;20201;-86
2022/10/01 04:21:21;;;;;;;6.20;5.60;;;12.80;75.80;12.70;96128.00;;;;5031149;28;20385;-86
2022/10/01 04:23:49;;;;;;;5.93;5.43;;;12.70;75.00;12.70;96120.00;;;;5031436;28;20619;-86
2022/10/01 04:26:16;;;;;;;6.17;5.57;;;12.70;75.10;12.70;96114.00;;;;5029930;28;20225;-86
2022/10/01 04:28:45;;;;;;;6.50;5.90;;;12.60;75.20;12.60;96118.00;;;;5030171;28;20280;-86
2022/10/01 04:31:24;;;;;;;8.20;6.43;;;12.70;75.30;12.60;96114.00;;;;5031080;28;20204;-86
2022/10/01 04:33:53;;;;;;;9.37;7.40;;;12.60;75.20;12.60;96123.00;;;;5030375;28;20279;-86
2022/10/01 04:36:20;;;;;;;8.47;7.33;;;12.60;75.30;12.50;96129.00;;;;5029956;28;20585;-86
2022/10/01 04:38:50;;;;;;;7.87;7.10;;;12.50;75.50;12.50;96127.00;;;;5040378;28;20295;-86
2022/10/01 04:41:18;;;;;;;8.37;7.27;;;12.40;76.40;12.50;96123.00;;;;5051727;28;20196;-86
2022/10/01 04:43:46;;;;;;;8.00;7.20;;;12.50;75.70;12.50;96120.00;;;;5054276;28;20550;-86
2022/10/01 04:46:14;;;;;;;18.97;8.03;;;12.40;75.70;12.40;96123.00;;;;5053475;28;20312;-86
2022/10/01 04:48:41;;;;;;;9.40;6.90;;;12.40;76.40;12.40;96125.00;;;;5053980;28;20283;-86
2022/10/01 04:51:08;;;;;;;19.13;7.87;;;12.40;75.80;12.40;96130.00;;;;5054094;28;20544;-86
2022/10/01 04:53:35;;;;;;;14.10;8.60;;;12.40;76.00;12.40;96132.00;;;;5053571;28;20203;-86
2022/10/01 04:56:03;;;;;;;8.97;8.03;;;12.40;76.00;12.40;96126.00;;;;5053707;28;20220;-86
2022/10/01 04:58:30;;;;;;;9.43;7.90;;;12.30;76.00;12.30;96122.00;;;;5053327;28;20203;-86
2022/10/01 05:00:59;;;;;;;7.97;7.17;;;12.30;76.20;12.30;96127.00;;;;5054097;28;20623;-86
2022/10/01 05:03:27;;;;;;;8.03;7.23;;;12.20;76.30;12.30;96129.00;;;;5053469;28;20227;-86
2022/10/01 05:05:54;;;;;;;8.63;7.77;;;12.30;76.40;12.30;96120.00;;;;5053257;28;20226;-86
2022/10/01 05:08:22;;;;;;;8.80;7.90;;;12.20;76.30;12.30;96119.00;;;;5047795;28;20706;-86
2022/10/01 05:10:49;;;;;;;9.17;7.80;;;12.40;76.40;12.30;96126.00;;;;5034029;28;20233;-86
2022/10/01 05:13:16;;;;;;;8.47;7.63;;;12.20;76.40;12.30;96128.00;;;;5037923;28;20199;-86
2022/10/01 05:15:43;;;;;;;9.10;8.20;;;12.30;76.50;12.30;96128.00;;;;5052933;28;20655;-85
2022/10/01 05:18:11;;;;;;;9.50;8.27;;;12.20;76.40;12.30;96119.00;;;;5053785;28;20287;-86
2022/10/01 05:20:38;;;;;;;10.60;9.50;;;12.20;76.50;12.30;96120.00;;;;5053055;28;20199;-85
2022/10/01 05:23:05;;;;;;;9.93;8.53;;;12.20;76.60;12.30;96125.00;;;;5053757;28;20203;-86
2022/10/01 05:25:32;;;;;;;8.50;7.70;;;12.20;76.60;12.30;96124.00;;;;5052907;28;20685;-86
2022/10/01 05:28:04;;;;;;;8.43;7.63;;;12.20;76.60;12.30;96127.00;;;;5053552;28;20710;-86
2022/10/01 05:30:33;;;;;;;9.40;8.50;;;12.20;76.70;12.30;96121.00;;;;5051703;28;20197;-85
2022/10/01 05:33:03;;;;;;;8.90;8.00;;;12.20;76.70;12.30;96133.00;;;;5042048;28;20193;-86
2022/10/01 05:35:32;;;;;;;9.17;7.63;;;12.20;76.70;12.30;96135.00;;;;5049797;28;20212;-86
2022/10/01 05:38:01;;;;;;;8.47;7.67;;;12.20;76.80;12.30;96129.00;;;;5051213;28;20200;-86
2022/10/01 05:40:30;;;;;;;8.77;7.87;;;12.20;76.80;12.30;96132.00;;;;5035489;28;20289;-85
2022/10/01 05:42:59;;;;;;;8.17;7.37;;;12.20;76.90;12.30;96130.00;;;;5034250;28;20209;-86
2022/10/01 05:45:28;;;;;;;9.03;8.00;;;12.20;77.00;12.30;96129.00;;;;5045766;28;20308;-85
2022/10/01 05:48:01;;;;;;;8.43;7.53;;;12.20;77.10;12.30;96132.00;;;;5053118;28;20308;-86
2022/10/01 05:50:30;;;;;;;8.53;7.73;;;12.20;77.20;12.40;96137.00;;;;5053892;28;20215;-85
2022/10/01 05:52:59;;;;;;;7.60;6.90;;;12.20;77.30;12.40;96148.00;;;;5052364;28;20204;-86
2022/10/01 05:55:30;;;;;;;8.33;7.57;;;12.30;77.50;12.40;96144.00;;;;5053944;28;20576;-85
2022/10/01 05:58:00;;;;;;;9.23;8.33;;;12.30;77.60;12.50;96149.00;;;;5054336;28;20236;-86
2022/10/01 06:00:29;;;;;;;8.37;7.57;;;12.30;77.80;12.50;96149.00;;;;5053244;28;20201;-86
2022/10/01 06:02:57;;;;;;;8.37;7.57;;;12.30;78.00;12.50;96144.00;;;;5053610;28;20658;-86
2022/10/01 06:05:25;;;;;;;7.87;7.10;;;12.40;78.20;12.60;96144.00;;;;5053179;28;20326;-86
2022/10/01 06:07:53;;;;;;;7.27;6.57;;;12.40;78.40;12.60;96139.00;;;;5053716;28;20227;-86
2022/10/01 06:10:22;;;;;;;7.37;6.67;;;12.40;78.50;12.70;96144.00;;;;5053547;28;20203;-86
2022/10/01 06:12:50;;;;;;;7.03;6.43;;;12.50;78.70;12.70;96143.00;;;;5053296;28;20196;-86
2022/10/01 06:15:18;;;;;;;7.50;6.80;;;12.50;78.90;12.80;96150.00;;;;5041078;28;20223;-86
2022/10/01 06:17:45;;;;;;;6.73;6.13;;;12.60;79.10;12.90;96154.00;;;;5038059;28;20334;-85
2022/10/01 06:20:14;;;;;;;6.10;5.60;;;12.60;79.30;12.90;96151.00;;;;5052786;28;20196;-86
2022/10/01 06:22:43;;;;;;;6.50;6.00;;;12.60;79.50;13.00;96157.00;;;;5052953;28;20663;-85
2022/10/01 06:25:14;;;;;;;5.77;5.20;;;12.70;79.70;13.10;96166.00;;;;5052392;28;20228;-85
2022/10/01 06:27:42;;;;;;;5.07;4.60;;;12.80;80.00;13.20;96169.00;;;;5052971;28;20252;-86
2022/10/01 06:30:11;;;;;;;5.03;4.63;;;12.80;80.30;13.30;96158.00;;;;5052210;28;20657;-85
2022/10/01 06:32:38;;;;;;;4.83;4.43;;;12.90;80.50;13.40;96164.00;;;;5053561;28;20264;-85
2022/10/01 06:35:06;;;;;;;5.70;5.20;;;13.00;80.70;13.50;96163.00;;;;5053338;28;20796;-86
2022/10/01 06:37:38;;;;;;;5.20;4.80;;;13.10;80.70;13.60;96163.00;;;;5053393;28;20264;-85
2022/10/01 06:40:07;;;;;;;5.20;4.80;;;13.10;80.70;13.70;96163.00;;;;5031904;28;20639;-85
2022/10/01 06:42:34;;;;;;;4.93;4.57;;;13.20;80.80;13.70;96164.00;;;;5033514;28;20205;-85
2022/10/01 06:45:02;;;;;;;5.40;4.90;;;13.30;80.80;13.80;96170.00;;;;5042343;28;20315;-86
2022/10/01 06:47:29;;;;;;;4.87;4.47;;;13.40;80.80;13.90;96171.00;;;;5053872;28;20243;-86
2022/10/01 06:49:58;;;;;;;5.10;4.80;;;13.50;80.80;14.00;96170.00;;;;5054339;28;20265;-84
2022/10/01 06:55:09;;;;;;;5.20;4.70;;;13.70;80.80;14.20;96175.00;;;;5053025;28;20719;-85
2022/10/01 06:57:36;;;;;;;4.60;4.30;;;13.80;80.80;14.30;96175.00;;;;5053608;28;20207;-85
2022/10/01 07:00:06;;;;;;;4.57;4.20;;;13.90;80.90;14.40;96174.00;;;;5054493;28;20203;-86
2022/10/01 07:02:34;;;;;;;4.87;4.50;;;13.90;80.80;14.50;96171.00;;;;5054781;28;20231;-85
2022/10/01 07:05:01;;;;;;;5.13;4.50;;;14.00;80.70;14.50;96167.00;;;;5052709;28;20213;-85
2022/10/01 07:07:30;;;;;;;5.70;5.20;;;14.10;80.70;14.60;96161.00;;;;5053508;28;20231;-85
2022/10/01 07:09:58;;;;;;;5.67;5.03;;;14.10;80.80;14.70;96156.00;;;;5054543;28;20230;-85
2022/10/01 07:12:25;;;;;;;6.30;4.30;;;14.30;80.80;14.80;96153.00;;;;5057631;28;20653;-84
2022/10/01 07:14:53;;;;;;;5.10;4.70;;;14.30;80.70;14.90;96145.00;;;;5057105;28;20315;-85
2022/10/01 07:17:22;;;;;;;4.33;4.03;;;14.40;80.60;15.00;96150.00;;;;5057043;28;20228;-84
2022/10/01 07:19:49;;;;;;;4.63;4.33;;;14.50;80.60;15.10;96151.00;;;;5056392;28;20203;-84
2022/10/01 07:22:18;;;;;;;4.97;4.57;;;14.60;80.60;15.10;96135.00;;;;5055282;28;20228;-85
2022/10/01 07:24:45;;;;;;;4.13;3.83;;;14.60;80.50;15.20;96148.00;;;;5053195;28;20217;-86
2022/10/01 07:27:12;;;;;;;4.57;4.27;;;14.70;80.50;15.30;96136.00;;;;5051940;28;20291;-86
2022/10/01 07:29:46;;;;;;;4.40;4.00;;;14.80;80.60;15.40;96138.00;;;;5051594;28;20200;-86
2022/10/01 07:32:13;;;;;;;4.90;4.50;;;14.90;80.50;15.40;96140.00;;;;5051823;28;20192;-86
2022/10/01 07:34:42;;;;;;;4.60;4.30;;;15.00;80.30;15.50;96135.00;;;;5051333;28;20204;-86
2022/10/01 07:37:10;;;;;;;4.70;4.20;;;15.00;80.20;15.60;96139.00;;;;5051107;28;20204;-86
2022/10/01 07:39:37;;;;;;;4.40;4.10;;;15.00;80.20;15.70;96132.00;;;;5052097;28;20229;-86
2022/10/01 07:42:05;;;;;;;4.77;4.47;;;15.20;80.20;15.70;96139.00;;;;5052238;28;20688;-87
2022/10/01 07:44:32;;;;;;;4.47;4.07;;;15.20;80.00;15.80;96148.00;;;;5050852;28;20672;-86
2022/10/01 07:47:00;;;;;;;4.50;4.20;;;15.30;79.80;15.90;96146.00;;;;5051543;28;20204;-87
2022/10/01 07:49:27;;;;;;;4.73;4.33;;;15.30;79.80;15.90;96136.00;;;;5051152;28;20586;-87
2022/10/01 07:51:57;;;;;;;4.60;4.20;;;15.50;79.70;16.00;96150.00;;;;5052010;28;20623;-86
2022/10/01 07:54:25;;;;;;;4.97;4.57;;;15.50;79.50;16.10;96144.00;;;;5051210;28;20197;-86
2022/10/01 07:56:54;;;;;;;4.47;4.17;;;15.60;79.40;16.10;96140.00;;;;5050238;28;20283;-87
2022/10/01 07:59:22;;;;;;;5.00;4.60;;;15.70;79.20;16.20;96136.00;;;;5051153;28;20218;-86
2022/10/01 08:01:50;;;;;;;4.33;4.03;;;15.70;79.00;16.30;96129.00;;;;5051110;28;20228;-85
2022/10/01 08:07:04;;;;;;;4.10;3.80;;;15.90;79.30;16.40;96131.00;;;;5051102;28;20680;-86
2022/10/01 08:09:31;;;;;;;3.90;3.57;;;15.90;80.00;16.50;96132.00;;;;5051292;28;20595;-86
2022/10/01 08:11:58;;;;;;;3.60;3.30;;;16.00;79.30;16.60;96133.00;;;;5040722;28;20200;-86
2022/10/01 08:14:25;;;;;;;3.13;2.90;;;16.10;79.00;16.70;96129.00;;;;5050616;28;20204;-86
2022/10/01 08:16:55;;;;;;;3.73;3.43;;;16.20;78.60;16.80;96129.00;;;;5046141;28;20203;-86
2022/10/01 08:19:23;;;;;;;3.23;3.03;;;16.20;78.50;16.80;96126.00;;;;5055906;28;20561;-87
2022/10/01 08:21:51;;;;;;;3.10;2.90;;;16.30;78.50;16.90;96128.00;;;;5054197;28;20200;-87
2022/10/01 08:24:20;;;;;;;2.60;2.40;;;16.40;78.40;17.00;96126.00;;;;5054271;28;20254;-87
2022/10/01 08:26:53;;;;;;;3.23;2.70;;;16.40;78.00;17.10;96127.00;;;;5055193;28;20284;-88
2022/10/01 08:29:20;;;;;;;2.43;2.33;;;16.50;77.70;17.10;96116.00;;;;5065104;28;20231;-86
2022/10/01 08:31:47;;;;;;;2.00;1.90;;;16.60;77.80;17.20;96119.00;;;;5056496;28;20277;-87
2022/10/01 08:34:15;;;;;;;2.00;1.80;;;16.60;77.30;17.30;96117.00;;;;5057278;28;20235;-87
2022/10/01 08:36:42;;;;;;;2.50;2.03;;;16.70;77.10;17.30;96105.00;;;;5055593;28;20307;-88
2022/10/01 08:39:10;;;;;;;1.80;1.70;;;16.80;76.80;17.40;96112.00;;;;5042337;28;20239;-87
2022/10/01 08:41:54;;;;;;;2.30;2.10;;;16.90;76.50;17.50;96104.00;;;;5034418;28;20280;-87
2022/10/01 08:44:27;;;;;;;1.40;1.30;;;16.90;75.20;17.50;96103.00;;;;5039066;28;20204;-87
2022/10/01 08:46:59;;;;;;;1.57;1.40;;;17.00;75.30;17.50;96106.00;;;;5055353;28;20208;-88
2022/10/01 08:49:34;;;;;;;1.60;1.50;;;17.00;75.00;17.50;96101.00;;;;5054757;28;20208;-87
2022/10/01 08:52:14;;;;;;;1.73;1.33;;;17.10;74.90;17.60;96092.00;;;;5053620;28;20276;-89
2022/10/01 08:54:48;;;;;;;1.53;1.43;;;17.10;74.60;17.60;96099.00;;;;5054623;28;20616;-87
2022/10/01 08:57:23;;;;;;;1.70;1.60;;;17.20;74.30;17.60;96098.00;;;;5055268;28;20272;-88
2022/10/01 08:59:55;;;;;;;1.40;1.30;;;17.20;73.60;17.60;96091.00;;;;5055474;28;20186;-87
2022/10/01 09:02:27;;;;;;;1.40;1.30;;;17.20;73.60;17.60;96086.00;;;;5054907;28;20268;-87
2022/10/01 09:04:58;;;;;;;1.50;1.40;;;17.20;74.50;17.60;96085.00;;;;5055240;28;20299;-87
2022/10/01 09:07:45;;;;;;;1.10;1.10;;;17.20;73.50;17.70;96095.00;;;;5054473;28;20669;-88
2022/10/01 09:10:27;;;;;;;1.10;1.10;;;17.30;73.20;17.70;96091.00;;;;5054286;28;20658;-88
2022/10/01 09:13:27;;;;;;;1.10;1.10;;;17.30;73.00;17.70;96084.00;;;;5054433;28;20193;-88
2022/10/01 09:16:06;;;;;;;1.20;1.20;;;17.30;72.80;17.70;96082.00;;;;5037053;28;20236;-88
2022/10/01 09:18:51;;;;;;;1.90;1.80;;;17.30;73.10;17.70;96077.00;;;;5034181;28;20721;-87
2022/10/01 09:21:24;;;;;;;1.33;1.23;;;17.40;72.80;17.80;96092.00;;;;5034164;28;20199;-88
2022/10/01 09:24:04;;;;;;;1.20;1.10;;;17.40;73.10;17.80;96080.00;;;;5050285;28;20204;-89
2022/10/01 09:26:31;;;;;;;0.97;0.97;;;17.40;72.40;17.80;96082.00;;;;5053439;28;20274;-88
2022/10/01 09:29:03;;;;;;;0.93;0.93;;;17.40;72.50;17.90;96078.00;;;;5054154;28;20724;-87
2022/10/01 09:31:40;;;;;;;1.43;1.07;;;17.40;72.20;17.90;96082.00;;;;5051870;28;20227;-87
2022/10/01 09:34:14;;;;;;;1.10;1.00;;;17.40;72.20;17.90;96078.00;;;;5047589;28;20280;-88
2022/10/01 09:36:56;;;;;;;1.20;1.10;;;17.50;72.20;18.00;96088.00;;;;5053691;28;20273;-88
2022/10/01 09:39:31;;;;;;;0.80;0.80;;;17.50;72.30;18.00;96084.00;;;;5053009;28;20243;-88
2022/10/01 09:41:59;;;;;;;0.93;0.80;;;17.50;71.70;18.00;96088.00;;;;5053547;28;20211;-89
2022/10/01 09:44:31;;;;;;;0.80;0.80;;;17.60;72.00;18.10;96096.00;;;;5053866;28;20234;-88
2022/10/01 09:46:59;;;;;;;0.93;0.90;;;17.60;71.90;18.10;96096.00;;;;5053798;28;20225;-88
2022/10/01 09:49:38;;;;;;;0.80;0.80;;;17.60;71.30;18.10;96100.00;;;;5052652;28;20248;-88
2022/10/01 09:52:23;;;;;;;0.70;0.70;;;17.70;71.10;18.10;96101.00;;;;5052607;28;20205;-87
2022/10/01 09:54:59;;;;;;;0.80;0.73;;;17.70;70.60;18.10;96093.00;;;;5052267;28;20231;-86
2022/10/01 09:57:33;;;;;;;0.80;0.80;;;17.70;70.70;18.10;96103.00;;;;5052838;28;20197;-87
2022/10/01 10:00:09;;;;;;;0.63;0.63;;;17.70;70.60;18.10;96106.00;;;;5053108;28;20216;-87
2022/10/01 10:02:41;;;;;;;0.90;0.90;;;17.80;70.00;18.10;96110.00;;;;5053290;28;20204;-87
2022/10/01 10:05:16;;;;;;;0.70;0.70;;;17.70;70.20;18.00;96114.00;;;;5052635;28;20697;-86
2022/10/01 10:07:47;;;;;;;0.70;0.70;;;17.70;70.10;18.00;96115.00;;;;5052753;28;20287;-87
2022/10/01 10:10:23;;;;;;;0.80;0.80;;;17.70;70.00;18.00;96120.00;;;;5052238;28;20253;-87
2022/10/01 10:12:57;;;;;;;0.70;0.70;;;17.70;70.20;17.90;96124.00;;;;5053145;28;20219;-87
2022/10/01 10:15:30;;;;;;;0.67;0.67;;;17.70;70.30;17.90;96125.00;;;;5039701;28;20221;-87
2022/10/01 10:18:06;;;;;;;0.93;0.47;;;17.60;70.50;17.80;96128.00;;;;5033033;28;20201;-88
2022/10/01 10:20:39;;;;;;;0.70;0.70;;;17.60;70.80;17.80;96127.00;;;;5032918;28;20185;-87
2022/10/01 10:23:08;;;;;;;0.70;0.70;;;17.60;70.90;17.70;96135.00;;;;5032931;28;20277;-87
2022/10/01 10:25:35;;;;;;;0.77;0.77;;;17.50;71.10;17.70;96128.00;;;;5031393;28;20227;-87
2022/10/01 10:28:03;;;;;;;2.10;0.90;;;17.50;70.90;17.60;96124.00;;;;5032312;28;20229;-87
2022/10/01 10:30:32;;;;;;;2.53;1.70;;;17.50;71.20;17.60;96121.00;;;;5032768;28;20193;-87
2022/10/01 10:33:06;;;;;;;3.27;1.67;;;17.40;71.50;17.50;96130.00;;;;5032744;28;20659;-87
2022/10/01 10:35:35;;;;;;;1.60;1.40;;;17.40;71.60;17.50;96141.00;;;;5031647;28;20259;-87
2022/10/01 10:38:02;;;;;;;1.20;1.10;;;17.30;71.80;17.40;96137.00;;;;5035420;28;20239;-87
2022/10/01 10:40:41;;;;;;;1.70;0.83;;;17.20;72.10;17.30;96143.00;;;;5051713;28;20220;-86
2022/10/01 10:43:21;;;;;;;1.20;1.10;;;17.20;72.90;17.30;96144.00;;;;5052096;28;20621;-86
2022/10/01 10:45:54;;;;;;;1.30;1.20;;;17.10;73.20;17.20;96146.00;;;;5051277;28;20259;-86
2022/10/01 10:48:26;;;;;;;1.83;1.37;;;17.10;72.80;17.20;96152.00;;;;5052210;28;20737;-86
2022/10/01 10:51:00;;;;;;;0.97;0.90;;;17.00;73.00;17.20;96151.00;;;;5052214;28;20623;-86
2022/10/01 10:53:39;;;;;;;1.20;1.10;;;17.00;74.20;17.10;96142.00;;;;5051083;28;20220;-85
2022/10/01 10:56:17;;;;;;;1.30;1.20;;;16.90;73.30;17.00;96137.00;;;;5050597;28;20221;-85
2022/10/01 10:58:44;;;;;;;1.20;1.10;;;16.90;73.30;17.00;96133.00;;;;5051870;28;20552;-87
2022/10/01 11:01:18;;;;;;;1.37;1.27;;;16.80;73.80;16.90;96130.00;;;;5051174;28;20632;-85
2022/10/01 11:03:52;;;;;;;0.93;0.93;;;16.80;74.20;16.80;96128.00;;;;5052322;28;20185;-86
2022/10/01 11:06:20;;;;;;;1.00;1.00;;;16.70;74.40;16.80;96125.00;;;;5050900;28;20213;-86
2022/10/01 11:08:58;;;;;;;1.40;1.30;;;16.70;74.70;16.80;96123.00;;;;5051327;28;20303;-87
2022/10/01 11:11:47;;;;;;;1.47;1.37;;;16.60;75.10;16.70;96137.00;;;;5051593;28;20187;-86
2022/10/01 11:14:38;;;;;;;1.33;1.30;;;16.60;75.20;16.70;96123.00;;;;5048901;28;20239;-87
2022/10/01 11:17:45;;;;;;;1.67;1.20;;;16.50;75.40;16.60;96127.00;;;;5045741;28;20666;-87